Detalii statie FIRST FARMS FAUREI [00001992]

Toti senzorii

Date Temperatura solului [C]Precipitatii [mm]Voltaj baterie [mV]Leaf Wetness [Min]HC Air temperature [C]HC Relative humidity [%]Punctul de roua [C]
medieminmaxsumaultimatimpmedieminmaxmediemediemin
2017-08-14 20:00:00 21.1 21 21.2 0 6864 21.04 20.86 21.26 74.77 16.2 15.9
2017-08-14 21:00:00 20.9 20.8 21.1 0 6854 20.7 20.43 20.93 74.66 15.9 15.7
2017-08-14 22:00:00 20.8 20.6 21 0 6844 20.36 20.17 20.64 76.35 15.9 15.6
2017-08-14 23:00:00 20.6 20.5 20.7 0 6834 19.63 19.29 20.41 79.86 15.9 15.6
2017-08-15 00:00:00 20.4 20.4 20.6 0 6816 19.69 19.23 20.41 79.9 16 15.5
2017-08-15 01:00:00 20.2 20.1 20.3 0 6816 20.54 20.43 20.73 73.35 15.4 15.3
2017-08-15 02:00:00 20.1 20.1 20.4 0 6816 20.86 20.63 21.02 70.44 15.1 14.8
2017-08-15 03:00:00 20.1 20 20.2 0 6786 20.03 19.65 20.53 74.4 15.1 15
2017-08-15 04:00:00 20 19.8 20.2 0 6786 19.58 19.32 19.82 75.8 15 14.8
2017-08-15 05:00:00 19.8 19.7 20 0 6796 18.73 18.27 19.39 79.62 15 14.8
2017-08-15 06:00:00 19.7 19.6 19.9 0 6786 19.09 18.92 19.25 74.61 14.3 14.1
2017-08-15 07:00:00 19.6 19.5 19.7 0 6932 20.45 19.33 21.43 65.71 13.6 12.8
2017-08-15 08:00:00 19.5 19.5 19.7 0 7108 21.98 21.49 22.52 56.84 12.9 12.3
2017-08-15 09:00:00 19.5 19.4 19.6 0 7186 23.05 22.58 23.66 55.91 13.5 13
2017-08-15 10:00:00 19.7 19.5 19.9 0 7196 23.93 23.58 24.26 56.62 14.6 14
2017-08-15 11:00:00 20 20 20.3 0 7196 24.03 23.25 24.65 57.1 14.8 14.1
2017-08-15 12:00:00 20.4 20.3 20.7 0 7196 25.08 24.18 25.74 52 14.2 13.7
2017-08-15 13:00:00 20.8 20.6 21.2 0 7186 26.11 25.75 26.55 49.94 14.6 14
2017-08-15 14:00:00 21.1 20.9 21.4 0 7176 26.83 26.28 27.44 46.2 14.1 13.5
2017-08-15 15:00:00 21.6 21.5 22 0 7176 27.53 26.67 28.04 44.39 14 13.5
2017-08-15 16:00:00 21.8 21.7 22.1 0 7176 26.61 26.02 27.08 45.39 13.6 13.3
2017-08-15 17:00:00 21.9 21.8 22.1 0 7176 26.27 25.92 26.73 45.49 13.3 13.1
2017-08-15 18:00:00 21.8 21.8 22.1 0 7176 26.05 25.68 26.6 46.31 13.4 13.1
2017-08-15 19:00:00 21.7 21.6 22 0 6884 24.91 24.24 25.39 49.52 13.4 13
2017-08-15 20:00:00 21.5 21.4 21.7 0 6864 23.87 23.68 24.11 52.61 13.4 13
2017-08-15 21:00:00 21.2 21 21.5 0 6854 23.61 23.49 23.77 53.19 13.3 13.2
2017-08-15 22:00:00 21.1 21 21.2 0 6844 23.45 23.21 23.59 54.51 13.5 13.4
2017-08-15 23:00:00 20.9 20.8 21.1 0 6834 23.56 23.34 23.76 54.09 13.6 13.3
2017-08-16 00:00:00 20.7 20.6 20.9 0 6834 23.3 22.76 23.61 53.37 13.1 12.7
2017-08-16 01:00:00 20.6 20.5 20.9 0 6826 22.19 21.91 22.68 58.02 13.3 13
2017-08-16 02:00:00 20.5 20.3 20.7 0 6826 21.66 21.46 21.96 61.41 13.7 13.4
2017-08-16 03:00:00 20.3 20.3 20.5 0 6796 21.49 21.42 21.64 63.51 14.1 13.8
2017-08-16 04:00:00 20.2 20.1 20.4 0 6806 21.07 20.83 21.39 68.14 14.8 14.6
2017-08-16 05:00:00 20.1 20 20.3 0 6786 21.87 21.46 22.09 65.13 14.8 14.6
2017-08-16 06:00:00 20 19.9 20.4 0 6796 21.77 21.61 21.95 65.94 14.9 14.8
2017-08-16 07:00:00 19.9 19.8 20.1 0 6884 22.46 21.99 23 63.52 15 14.8
2017-08-16 08:00:00 20 19.9 20.1 0 7040 23.84 23.11 24.33 59.48 15.2 15.1
2017-08-16 09:00:00 20 19.8 20.2 0 7108 25.21 24.57 25.87 55.92 15.5 15.3
2017-08-16 10:00:00 20.3 20.1 20.7 0 7196 26.28 26 26.66 53.28 15.8 15.5
2017-08-16 11:00:00 21 20.6 21.5 0 7186 27.5 26.94 28.31 49.55 15.8 15.6
2017-08-16 12:00:00 22 21.6 22.6 0 7186 28.36 27.79 29.16 47.87 16 15.6
2017-08-16 13:00:00 22.8 22.5 23.1 0 7186 29.93 28.81 30.72 44.32 16.2 15.8
2017-08-16 14:00:00 23.5 23.2 23.9 0 7176 31.52 30.52 32.71 38.46 15.3 14.4
2017-08-16 15:00:00 24.2 23.9 24.7 0 7166 32.87 32.37 33.5 33.17 14.2 13.5
2017-08-16 16:00:00 25 24.6 25.5 0 7176 32.95 32 33.44 32.28 13.9 13.3
2017-08-16 17:00:00 25.6 25.5 25.9 0 7050 32.11 31.06 32.58 32.46 13.3 12.7
2017-08-16 18:00:00 25.9 25.9 26.1 0 7166 30.23 29.27 32.24 37.44 13.8 12.6
2017-08-16 19:00:00 25.8 25.8 25.9 0 6844 27.99 26.02 29.68 43.4 14 13.8